Terminal Aerodrome Forecast
Issued by NWS Sioux Falls, SD

Home | Current Version | Previous Version | Graphics & Text | Print | Product List | Glossary Off
Versions: 1 2 3 4 5 6 7 8 9 10 11 12 13 14 15 16

321
FTUS43 KFSD 162333
TAFHON
TAF
KHON 162333Z 1700/1724 33012KT 6SM -SHRA SCT015 OVC110
     FM170200 33011KT P6SM VCSH OVC030
     FM170500 31010KT P6SM BKN020
     FM171000 32010KT P6SM FEW140=

USA.gov is the U.S. government's official web portal to all federal, state and local government web resources and services.